Terminal Aerodrome Forecast
Issued by NWS

Home | Current Version | Previous Version | Text Only | Print | Product List | Glossary On
Versions: 1 2 3 4 5 6 7 8 9 10 11 12 13 14
799
FTUS44 KTSA 280529
TAFFYV
TAF
KFYV 280529Z 2806/0106 18011KT P6SM OVC009
     FM281500 19014G20KT P6SM OVC015
     FM281800 20016G24KT P6SM OVC015
     FM282200 20015G24KT P6SM VCTS OVC015CB=

USA.gov is the U.S. government's official web portal to all federal, state and local government web resources and services.